sensor_id;sensor_type;location;lat;lon;timestamp;pressure;altitude;pressure_sealevel;temperature;humidity
15678;BME280;7939;50.814;6.368;2023-04-08T00:00:46;100480.13;;;12.38;61.87
15678;BME280;7939;50.814;6.368;2023-04-08T00:03:13;100475.84;;;12.39;63.02
15678;BME280;7939;50.814;6.368;2023-04-08T00:05:39;100478.41;;;12.39;62.82
15678;BME280;7939;50.814;6.368;2023-04-08T00:08:06;100479.25;;;12.39;61.84
15678;BME280;7939;50.814;6.368;2023-04-08T00:10:32;100483.53;;;12.39;62.66
15678;BME280;7939;50.814;6.368;2023-04-08T00:13:00;100481.78;;;12.38;62.16
15678;BME280;7939;50.814;6.368;2023-04-08T00:15:27;100479.22;;;12.38;61.66
15678;BME280;7939;50.814;6.368;2023-04-08T00:17:53;100475.81;;;12.37;62.31
15678;BME280;7939;50.814;6.368;2023-04-08T00:20:21;100472.41;;;12.37;62.66
15678;BME280;7939;50.814;6.368;2023-04-08T00:22:48;100480.13;;;12.38;62.52
15678;BME280;7939;50.814;6.368;2023-04-08T00:25:14;100474.09;;;12.38;62.38
15678;BME280;7939;50.814;6.368;2023-04-08T00:27:41;100478.38;;;12.37;62.88
15678;BME280;7939;50.814;6.368;2023-04-08T00:30:09;100474.97;;;12.37;62.21
15678;BME280;7939;50.814;6.368;2023-04-08T00:32:36;100483.50;;;12.37;62.71
15678;BME280;7939;50.814;6.368;2023-04-08T00:35:03;100483.50;;;12.37;62.65
15678;BME280;7939;50.814;6.368;2023-04-08T00:37:30;100492.03;;;12.36;62.79
15678;BME280;7939;50.814;6.368;2023-04-08T00:39:57;100490.34;;;12.35;62.60
15678;BME280;7939;50.814;6.368;2023-04-08T00:42:23;100487.78;;;12.35;62.11
15678;BME280;7939;50.814;6.368;2023-04-08T00:44:50;100487.78;;;12.35;62.19
15678;BME280;7939;50.814;6.368;2023-04-08T00:47:18;100487.78;;;12.35;62.24
15678;BME280;7939;50.814;6.368;2023-04-08T00:49:45;100492.03;;;12.36;62.66
15678;BME280;7939;50.814;6.368;2023-04-08T00:52:12;100488.63;;;12.36;62.73
15678;BME280;7939;50.814;6.368;2023-04-08T00:54:40;100487.78;;;12.35;63.21
15678;BME280;7939;50.814;6.368;2023-04-08T00:57:07;100491.19;;;12.34;61.74
15678;BME280;7939;50.814;6.368;2023-04-08T00:59:34;100496.31;;;12.36;62.67
15678;BME280;7939;50.814;6.368;2023-04-08T01:02:06;100489.47;;;12.35;62.70
15678;BME280;7939;50.814;6.368;2023-04-08T01:04:43;100491.19;;;12.34;62.45
15678;BME280;7939;50.814;6.368;2023-04-08T01:07:14;100499.75;;;12.35;62.34
15678;BME280;7939;50.814;6.368;2023-04-08T01:09:45;100497.16;;;12.35;62.11
15678;BME280;7939;50.814;6.368;2023-04-08T01:12:17;100498.88;;;12.34;62.01
15678;BME280;7939;50.814;6.368;2023-04-08T01:14:47;100501.44;;;12.34;62.31
15678;BME280;7939;50.814;6.368;2023-04-08T01:17:18;100498.88;;;12.34;62.61
15678;BME280;7939;50.814;6.368;2023-04-08T01:19:48;100503.16;;;12.34;61.93
15678;BME280;7939;50.814;6.368;2023-04-08T01:22:28;100495.47;;;12.34;62.09
15678;BME280;7939;50.814;6.368;2023-04-08T01:25:02;100491.19;;;12.33;62.48
15678;BME280;7939;50.814;6.368;2023-04-08T01:27:31;100493.75;;;12.33;62.15
15678;BME280;7939;50.814;6.368;2023-04-08T01:30:00;100497.16;;;12.32;62.83
15678;BME280;7939;50.814;6.368;2023-04-08T01:32:27;100488.63;;;12.33;62.20
15678;BME280;7939;50.814;6.368;2023-04-08T01:34:55;100496.31;;;12.33;62.69
15678;BME280;7939;50.814;6.368;2023-04-08T01:37:24;100489.47;;;12.30;63.11
15678;BME280;7939;50.814;6.368;2023-04-08T01:39:53;100499.72;;;12.32;62.64
15678;BME280;7939;50.814;6.368;2023-04-08T01:42:21;100505.69;;;12.31;62.51
15678;BME280;7939;50.814;6.368;2023-04-08T01:44:51;100499.72;;;12.30;63.05
15678;BME280;7939;50.814;6.368;2023-04-08T01:47:18;100504.84;;;12.30;62.56
15678;BME280;7939;50.814;6.368;2023-04-08T01:49:45;100500.56;;;12.31;62.60
15678;BME280;7939;50.814;6.368;2023-04-08T01:52:13;100503.97;;;12.31;61.84
15678;BME280;7939;50.814;6.368;2023-04-08T01:54:41;100502.28;;;12.30;62.60
15678;BME280;7939;50.814;6.368;2023-04-08T01:57:11;100503.13;;;12.31;62.55
15678;BME280;7939;50.814;6.368;2023-04-08T01:59:41;100502.28;;;12.30;62.52
15678;BME280;7939;50.814;6.368;2023-04-08T02:02:09;100506.53;;;12.30;62.43
15678;BME280;7939;50.814;6.368;2023-04-08T02:04:37;100507.41;;;12.30;62.37
15678;BME280;7939;50.814;6.368;2023-04-08T02:07:04;100504.84;;;12.30;62.63
15678;BME280;7939;50.814;6.368;2023-04-08T02:09:31;100504.84;;;12.30;62.02
15678;BME280;7939;50.814;6.368;2023-04-08T02:11:58;100507.41;;;12.30;63.09
15678;BME280;7939;50.814;6.368;2023-04-08T02:14:26;100506.53;;;12.30;62.61
15678;BME280;7939;50.814;6.368;2023-04-08T02:16:55;100504.84;;;12.29;62.00
15678;BME280;7939;50.814;6.368;2023-04-08T02:19:29;100512.53;;;12.27;62.36
15678;BME280;7939;50.814;6.368;2023-04-08T02:22:04;100512.53;;;12.29;62.27
15678;BME280;7939;50.814;6.368;2023-04-08T02:24:35;100509.97;;;12.29;62.93
15678;BME280;7939;50.814;6.368;2023-04-08T02:27:05;100515.09;;;12.29;62.90
15678;BME280;7939;50.814;6.368;2023-04-08T02:29:35;100519.34;;;12.28;62.94
15678;BME280;7939;50.814;6.368;2023-04-08T02:32:03;100510.81;;;12.28;63.06
15678;BME280;7939;50.814;6.368;2023-04-08T02:34:33;100515.09;;;12.29;62.90
15678;BME280;7939;50.814;6.368;2023-04-08T02:37:01;100515.94;;;12.28;61.95
15678;BME280;7939;50.814;6.368;2023-04-08T02:39:31;100521.91;;;12.28;62.77
15678;BME280;7939;50.814;6.368;2023-04-08T02:41:58;100519.34;;;12.27;62.53
15678;BME280;7939;50.814;6.368;2023-04-08T02:44:24;100515.09;;;12.27;63.08
15678;BME280;7939;50.814;6.368;2023-04-08T02:46:51;100516.78;;;12.27;63.22
15678;BME280;7939;50.814;6.368;2023-04-08T02:49:17;100515.94;;;12.28;63.23
15678;BME280;7939;50.814;6.368;2023-04-08T02:51:45;100510.81;;;12.28;62.70
15678;BME280;7939;50.814;6.368;2023-04-08T02:54:12;100513.38;;;12.28;62.94
15678;BME280;7939;50.814;6.368;2023-04-08T02:56:39;100515.09;;;12.29;61.98
15678;BME280;7939;50.814;6.368;2023-04-08T02:59:05;100519.34;;;12.28;62.18
15678;BME280;7939;50.814;6.368;2023-04-08T03:01:32;100522.78;;;12.29;62.60
15678;BME280;7939;50.814;6.368;2023-04-08T03:03:58;100518.50;;;12.28;62.08
15678;BME280;7939;50.814;6.368;2023-04-08T03:06:25;100523.63;;;12.28;62.73
15678;BME280;7939;50.814;6.368;2023-04-08T03:08:53;100520.22;;;12.27;62.04
15678;BME280;7939;50.814;6.368;2023-04-08T03:11:20;100524.47;;;12.27;61.88
15678;BME280;7939;50.814;6.368;2023-04-08T03:13:46;100515.94;;;12.26;62.91
15678;BME280;7939;50.814;6.368;2023-04-08T03:16:13;100522.78;;;12.27;62.07
15678;BME280;7939;50.814;6.368;2023-04-08T03:18:40;100517.66;;;12.26;62.75
15678;BME280;7939;50.814;6.368;2023-04-08T03:21:07;100515.94;;;12.26;62.83
15678;BME280;7939;50.814;6.368;2023-04-08T03:23:33;100515.09;;;12.26;61.98
15678;BME280;7939;50.814;6.368;2023-04-08T03:26:01;100521.06;;;12.26;62.26
15678;BME280;7939;50.814;6.368;2023-04-08T03:28:28;100515.09;;;12.27;62.38
15678;BME280;7939;50.814;6.368;2023-04-08T03:30:54;100516.75;;;12.25;62.25
15678;BME280;7939;50.814;6.368;2023-04-08T03:33:21;100523.63;;;12.26;62.71
15678;BME280;7939;50.814;6.368;2023-04-08T03:35:48;100524.44;;;12.25;63.11
15678;BME280;7939;50.814;6.368;2023-04-08T03:38:14;100522.75;;;12.24;62.52
15678;BME280;7939;50.814;6.368;2023-04-08T03:40:41;100515.91;;;12.23;62.06
15678;BME280;7939;50.814;6.368;2023-04-08T03:43:09;100522.75;;;12.23;62.63
15678;BME280;7939;50.814;6.368;2023-04-08T03:45:36;100521.03;;;12.23;62.44
15678;BME280;7939;50.814;6.368;2023-04-08T03:48:03;100520.19;;;12.23;63.36
15678;BME280;7939;50.814;6.368;2023-04-08T03:50:29;100521.88;;;12.22;63.26
15678;BME280;7939;50.814;6.368;2023-04-08T03:52:56;100526.16;;;12.23;62.54
15678;BME280;7939;50.814;6.368;2023-04-08T03:55:23;100521.03;;;12.23;62.43
15678;BME280;7939;50.814;6.368;2023-04-08T03:57:49;100513.34;;;12.22;62.92
15678;BME280;7939;50.814;6.368;2023-04-08T04:00:17;100527.00;;;12.22;63.15
15678;BME280;7939;50.814;6.368;2023-04-08T04:02:44;100524.44;;;12.22;62.75
15678;BME280;7939;50.814;6.368;2023-04-08T04:05:10;100521.88;;;12.22;62.79
15678;BME280;7939;50.814;6.368;2023-04-08T04:07:37;100527.00;;;12.21;62.73
15678;BME280;7939;50.814;6.368;2023-04-08T04:10:04;100526.16;;;12.22;62.27
15678;BME280;7939;50.814;6.368;2023-04-08T04:12:31;100524.44;;;12.21;63.16
15678;BME280;7939;50.814;6.368;2023-04-08T04:14:57;100532.13;;;12.22;62.49
15678;BME280;7939;50.814;6.368;2023-04-08T04:17:25;100525.31;;;12.21;63.17
15678;BME280;7939;50.814;6.368;2023-04-08T04:19:52;100529.56;;;12.21;62.23
15678;BME280;7939;50.814;6.368;2023-04-08T04:22:19;100534.69;;;12.22;62.38
15678;BME280;7939;50.814;6.368;2023-04-08T04:24:46;100528.72;;;12.22;62.39
15678;BME280;7939;50.814;6.368;2023-04-08T04:27:13;100530.44;;;12.21;62.47
15678;BME280;7939;50.814;6.368;2023-04-08T04:29:42;100531.28;;;12.22;62.44
15678;BME280;7939;50.814;6.368;2023-04-08T04:32:08;100527.00;;;12.21;62.41
15678;BME280;7939;50.814;6.368;2023-04-08T04:34:36;100533.00;;;12.21;63.19
15678;BME280;7939;50.814;6.368;2023-04-08T04:37:03;100536.41;;;12.20;63.11
15678;BME280;7939;50.814;6.368;2023-04-08T04:39:29;100527.88;;;12.20;63.10
15678;BME280;7939;50.814;6.368;2023-04-08T04:41:56;100538.13;;;12.20;62.86
15678;BME280;7939;50.814;6.368;2023-04-08T04:44:23;100535.56;;;12.20;62.51
15678;BME280;7939;50.814;6.368;2023-04-08T04:46:49;100543.25;;;12.20;62.46
15678;BME280;7939;50.814;6.368;2023-04-08T04:49:16;100544.09;;;12.20;62.26
15678;BME280;7939;50.814;6.368;2023-04-08T04:51:44;100542.34;;;12.19;61.91
15678;BME280;7939;50.814;6.368;2023-04-08T04:54:10;100550.94;;;12.20;62.12
15678;BME280;7939;50.814;6.368;2023-04-08T04:56:37;100562.84;;;12.19;62.88
15678;BME280;7939;50.814;6.368;2023-04-08T04:59:03;100553.44;;;12.18;62.83
15678;BME280;7939;50.814;6.368;2023-04-08T05:01:31;100558.56;;;12.17;62.62
15678;BME280;7939;50.814;6.368;2023-04-08T05:03:57;100565.41;;;12.18;63.25
15678;BME280;7939;50.814;6.368;2023-04-08T05:06:24;100569.69;;;12.17;62.75
15678;BME280;7939;50.814;6.368;2023-04-08T05:08:53;100567.97;;;12.14;62.52
15678;BME280;7939;50.814;6.368;2023-04-08T05:11:19;100571.38;;;12.15;63.16
15678;BME280;7939;50.814;6.368;2023-04-08T05:13:47;100575.66;;;12.16;63.20
15678;BME280;7939;50.814;6.368;2023-04-08T05:16:14;100574.81;;;12.15;63.29
15678;BME280;7939;50.814;6.368;2023-04-08T05:18:40;100577.38;;;12.17;63.25
15678;BME280;7939;50.814;6.368;2023-04-08T05:21:07;100568.81;;;12.17;63.14
15678;BME280;7939;50.814;6.368;2023-04-08T05:23:34;100577.38;;;12.19;63.02
15678;BME280;7939;50.814;6.368;2023-04-08T05:26:02;100579.06;;;12.18;62.76
15678;BME280;7939;50.814;6.368;2023-04-08T05:28:28;100582.50;;;12.19;63.21
15678;BME280;7939;50.814;6.368;2023-04-08T05:30:55;100579.94;;;12.17;62.79
15678;BME280;7939;50.814;6.368;2023-04-08T05:33:22;100576.50;;;12.18;62.36
15678;BME280;7939;50.814;6.368;2023-04-08T05:35:50;100573.09;;;12.19;63.33
15678;BME280;7939;50.814;6.368;2023-04-08T05:38:17;100588.47;;;12.18;62.71
15678;BME280;7939;50.814;6.368;2023-04-08T05:40:44;100588.47;;;12.18;62.99
15678;BME280;7939;50.814;6.368;2023-04-08T05:43:12;100584.19;;;12.18;63.19
15678;BME280;7939;50.814;6.368;2023-04-08T05:45:38;100587.63;;;12.17;62.71
15678;BME280;7939;50.814;6.368;2023-04-08T05:48:05;100592.75;;;12.15;62.98
15678;BME280;7939;50.814;6.368;2023-04-08T05:50:33;100593.59;;;12.18;63.53
15678;BME280;7939;50.814;6.368;2023-04-08T05:53:00;100595.31;;;12.19;62.67
15678;BME280;7939;50.814;6.368;2023-04-08T05:55:27;100597.00;;;12.18;62.95
15678;BME280;7939;50.814;6.368;2023-04-08T05:57:53;100596.16;;;12.18;62.99
15678;BME280;7939;50.814;6.368;2023-04-08T06:00:21;100599.56;;;12.18;62.36
15678;BME280;7939;50.814;6.368;2023-04-08T06:02:48;100604.69;;;12.18;63.54
15678;BME280;7939;50.814;6.368;2023-04-08T06:05:14;100608.97;;;12.18;63.70
15678;BME280;7939;50.814;6.368;2023-04-08T06:07:41;100603.84;;;12.18;63.31
15678;BME280;7939;50.814;6.368;2023-04-08T06:10:08;100606.41;;;12.16;62.72
15678;BME280;7939;50.814;6.368;2023-04-08T06:12:35;100608.13;;;12.14;63.56
15678;BME280;7939;50.814;6.368;2023-04-08T06:15:03;100606.41;;;12.18;62.77
15678;BME280;7939;50.814;6.368;2023-04-08T06:17:31;100609.81;;;12.17;63.68
15678;BME280;7939;50.814;6.368;2023-04-08T06:20:00;100618.38;;;12.17;63.48
15678;BME280;7939;50.814;6.368;2023-04-08T06:22:26;100615.81;;;12.17;63.25
15678;BME280;7939;50.814;6.368;2023-04-08T06:24:53;100619.22;;;12.18;63.50
15678;BME280;7939;50.814;6.368;2023-04-08T06:27:20;100628.63;;;12.19;62.84
15678;BME280;7939;50.814;6.368;2023-04-08T06:29:47;100620.94;;;12.17;63.38
15678;BME280;7939;50.814;6.368;2023-04-08T06:32:14;100626.91;;;12.18;63.29
15678;BME280;7939;50.814;6.368;2023-04-08T06:34:43;100640.56;;;12.17;62.82
15678;BME280;7939;50.814;6.368;2023-04-08T06:37:10;100632.88;;;12.17;63.01
15678;BME280;7939;50.814;6.368;2023-04-08T06:39:36;100633.75;;;12.17;63.45
15678;BME280;7939;50.814;6.368;2023-04-08T06:42:03;100635.44;;;12.17;62.88
15678;BME280;7939;50.814;6.368;2023-04-08T06:44:30;100630.31;;;12.17;63.30
15678;BME280;7939;50.814;6.368;2023-04-08T06:46:57;100624.34;;;12.18;63.88
15678;BME280;7939;50.814;6.368;2023-04-08T06:49:23;100644.84;;;12.18;63.41
15678;BME280;7939;50.814;6.368;2023-04-08T06:51:52;100635.44;;;12.18;62.70
15678;BME280;7939;50.814;6.368;2023-04-08T06:54:19;100633.75;;;12.17;64.23
15678;BME280;7939;50.814;6.368;2023-04-08T06:56:45;100644.84;;;12.16;64.07
15678;BME280;7939;50.814;6.368;2023-04-08T06:59:12;100654.22;;;12.15;63.32
15678;BME280;7939;50.814;6.368;2023-04-08T07:01:38;100648.25;;;12.17;64.11
15678;BME280;7939;50.814;6.368;2023-04-08T07:04:06;100648.25;;;12.17;63.67
15678;BME280;7939;50.814;6.368;2023-04-08T07:06:32;100652.53;;;12.16;63.48
15678;BME280;7939;50.814;6.368;2023-04-08T07:09:00;100653.38;;;12.15;63.49
15678;BME280;7939;50.814;6.368;2023-04-08T07:11:28;100656.78;;;12.15;63.91
15678;BME280;7939;50.814;6.368;2023-04-08T07:13:54;100667.03;;;12.15;63.26
15678;BME280;7939;50.814;6.368;2023-04-08T07:16:21;100662.78;;;12.16;64.43
15678;BME280;7939;50.814;6.368;2023-04-08T07:18:48;100663.63;;;12.15;64.28
15678;BME280;7939;50.814;6.368;2023-04-08T07:21:15;100667.91;;;12.18;63.84
15678;BME280;7939;50.814;6.368;2023-04-08T07:23:42;100674.75;;;12.19;63.64
15678;BME280;7939;50.814;6.368;2023-04-08T07:26:10;100679.03;;;12.20;63.60
15678;BME280;7939;50.814;6.368;2023-04-08T07:28:37;100682.44;;;12.19;63.23
15678;BME280;7939;50.814;6.368;2023-04-08T07:31:11;100683.31;;;12.21;63.40
15678;BME280;7939;50.814;6.368;2023-04-08T07:33:38;100679.03;;;12.20;64.34
15678;BME280;7939;50.814;6.368;2023-04-08T07:36:04;100688.41;;;12.19;64.00
15678;BME280;7939;50.814;6.368;2023-04-08T07:38:31;100682.41;;;12.17;64.26
15678;BME280;7939;50.814;6.368;2023-04-08T07:40:58;100684.13;;;12.18;64.44
15678;BME280;7939;50.814;6.368;2023-04-08T07:43:26;100689.25;;;12.18;64.53
15678;BME280;7939;50.814;6.368;2023-04-08T07:45:52;100685.84;;;12.18;63.98
15678;BME280;7939;50.814;6.368;2023-04-08T07:48:19;100700.34;;;12.17;64.26
15678;BME280;7939;50.814;6.368;2023-04-08T07:50:45;100699.50;;;12.17;63.79
15678;BME280;7939;50.814;6.368;2023-04-08T07:53:12;100700.34;;;12.15;64.26
15678;BME280;7939;50.814;6.368;2023-04-08T07:55:39;100702.91;;;12.17;64.36
15678;BME280;7939;50.814;6.368;2023-04-08T07:58:06;100700.34;;;12.17;64.61
15678;BME280;7939;50.814;6.368;2023-04-08T08:00:34;100708.91;;;12.18;64.66
15678;BME280;7939;50.814;6.368;2023-04-08T08:03:01;100703.78;;;12.19;64.49
15678;BME280;7939;50.814;6.368;2023-04-08T08:05:28;100702.09;;;12.20;64.75
15678;BME280;7939;50.814;6.368;2023-04-08T08:07:54;100706.38;;;12.21;64.01
15678;BME280;7939;50.814;6.368;2023-04-08T08:10:21;100708.94;;;12.21;64.69
15678;BME280;7939;50.814;6.368;2023-04-08T08:12:47;100708.09;;;12.22;63.94
15678;BME280;7939;50.814;6.368;2023-04-08T08:15:14;100712.38;;;12.24;64.87
15678;BME280;7939;50.814;6.368;2023-04-08T08:17:42;100711.53;;;12.24;64.37
15678;BME280;7939;50.814;6.368;2023-04-08T08:20:09;100718.38;;;12.26;64.46
15678;BME280;7939;50.814;6.368;2023-04-08T08:22:36;100718.34;;;12.25;64.43
15678;BME280;7939;50.814;6.368;2023-04-08T08:25:04;100718.34;;;12.23;63.77
15678;BME280;7939;50.814;6.368;2023-04-08T08:27:32;100720.91;;;12.23;64.75
15678;BME280;7939;50.814;6.368;2023-04-08T08:29:59;100715.78;;;12.20;65.22
15678;BME280;7939;50.814;6.368;2023-04-08T08:32:26;100735.44;;;12.21;64.47
15678;BME280;7939;50.814;6.368;2023-04-08T08:34:54;100736.28;;;12.22;63.89
15678;BME280;7939;50.814;6.368;2023-04-08T08:37:20;100732.88;;;12.24;63.81
15678;BME280;7939;50.814;6.368;2023-04-08T08:39:47;100728.59;;;12.25;64.78
15678;BME280;7939;50.814;6.368;2023-04-08T08:42:18;100733.78;;;12.26;64.13
15678;BME280;7939;50.814;6.368;2023-04-08T08:44:45;100738.03;;;12.27;65.08
15678;BME280;7939;50.814;6.368;2023-04-08T08:47:12;100736.34;;;12.29;64.04
15678;BME280;7939;50.814;6.368;2023-04-08T08:49:39;100732.94;;;12.30;64.90
15678;BME280;7939;50.814;6.368;2023-04-08T08:52:07;100744.88;;;12.28;64.42
15678;BME280;7939;50.814;6.368;2023-04-08T08:54:34;100735.50;;;12.30;64.56
15678;BME280;7939;50.814;6.368;2023-04-08T08:57:00;100741.50;;;12.32;64.33
15678;BME280;7939;50.814;6.368;2023-04-08T08:59:27;100750.00;;;12.31;64.49
15678;BME280;7939;50.814;6.368;2023-04-08T09:01:54;100734.69;;;12.34;63.99
15678;BME280;7939;50.814;6.368;2023-04-08T09:04:21;100738.97;;;12.37;63.81
15678;BME280;7939;50.814;6.368;2023-04-08T09:06:49;100750.09;;;12.39;63.94
15678;BME280;7939;50.814;6.368;2023-04-08T09:09:17;100745.84;;;12.42;64.06
15678;BME280;7939;50.814;6.368;2023-04-08T09:11:45;100741.56;;;12.43;64.30
15678;BME280;7939;50.814;6.368;2023-04-08T09:14:19;100741.59;;;12.45;63.39
15678;BME280;7939;50.814;6.368;2023-04-08T09:16:46;100744.19;;;12.49;63.40
15678;BME280;7939;50.814;6.368;2023-04-08T09:19:13;100753.63;;;12.52;63.47
15678;BME280;7939;50.814;6.368;2023-04-08T09:21:41;100750.22;;;12.54;63.30
15678;BME280;7939;50.814;6.368;2023-04-08T09:24:08;100749.41;;;12.58;63.67
15678;BME280;7939;50.814;6.368;2023-04-08T09:26:37;100752.81;;;12.59;63.17
15678;BME280;7939;50.814;6.368;2023-04-08T09:29:05;100750.25;;;12.59;63.22
15678;BME280;7939;50.814;6.368;2023-04-08T09:31:34;100756.25;;;12.61;62.82
15678;BME280;7939;50.814;6.368;2023-04-08T09:34:09;100755.38;;;12.62;62.80
15678;BME280;7939;50.814;6.368;2023-04-08T09:36:37;100761.41;;;12.65;62.04
15678;BME280;7939;50.814;6.368;2023-04-08T09:39:04;100762.28;;;12.66;62.18
15678;BME280;7939;50.814;6.368;2023-04-08T09:41:33;100762.28;;;12.69;63.10
15678;BME280;7939;50.814;6.368;2023-04-08T09:44:02;100758.00;;;12.66;62.39
15678;BME280;7939;50.814;6.368;2023-04-08T09:46:32;100756.28;;;12.67;62.22
15678;BME280;7939;50.814;6.368;2023-04-08T09:49:05;100758.84;;;12.68;61.93
15678;BME280;7939;50.814;6.368;2023-04-08T09:51:44;100754.59;;;12.69;62.27
15678;BME280;7939;50.814;6.368;2023-04-08T09:54:14;100749.53;;;12.77;62.77
15678;BME280;7939;50.814;6.368;2023-04-08T09:56:50;100754.66;;;12.78;63.28
15678;BME280;7939;50.814;6.368;2023-04-08T09:59:24;100756.41;;;12.82;62.39
15678;BME280;7939;50.814;6.368;2023-04-08T10:01:54;100751.28;;;12.84;62.57
15678;BME280;7939;50.814;6.368;2023-04-08T10:04:25;100762.41;;;12.87;62.67
15678;BME280;7939;50.814;6.368;2023-04-08T10:06:56;100754.75;;;12.89;62.21
15678;BME280;7939;50.814;6.368;2023-04-08T10:09:23;100753.00;;;12.86;61.37
15678;BME280;7939;50.814;6.368;2023-04-08T10:11:51;100753.00;;;12.86;61.84
15678;BME280;7939;50.814;6.368;2023-04-08T10:14:18;100761.56;;;12.88;61.62
15678;BME280;7939;50.814;6.368;2023-04-08T10:16:47;100754.72;;;12.87;62.58
15678;BME280;7939;50.814;6.368;2023-04-08T10:19:35;100760.69;;;12.88;61.98
15678;BME280;7939;50.814;6.368;2023-04-08T10:25:28;100759.84;;;12.87;60.74
15678;BME280;7939;50.814;6.368;2023-04-08T10:27:55;100754.75;;;12.90;60.01
15678;BME280;7939;50.814;6.368;2023-04-08T10:30:43;100747.91;;;12.91;60.11
15678;BME280;7939;50.814;6.368;2023-04-08T10:33:14;100743.63;;;12.94;60.13
15678;BME280;7939;50.814;6.368;2023-04-08T10:35:42;100735.09;;;12.97;61.19
15678;BME280;7939;50.814;6.368;2023-04-08T10:38:11;100743.66;;;13.01;61.27
15678;BME280;7939;50.814;6.368;2023-04-08T10:40:40;100741.13;;;13.02;61.58
15678;BME280;7939;50.814;6.368;2023-04-08T10:43:07;100748.81;;;13.05;60.79
15678;BME280;7939;50.814;6.368;2023-04-08T10:45:34;100742.81;;;13.00;60.82
15678;BME280;7939;50.814;6.368;2023-04-08T10:48:13;100738.53;;;13.01;60.17
15678;BME280;7939;50.814;6.368;2023-04-08T10:50:42;100739.41;;;13.06;60.12
15678;BME280;7939;50.814;6.368;2023-04-08T10:53:10;100743.72;;;13.08;60.67
15678;BME280;7939;50.814;6.368;2023-04-08T10:55:36;100737.75;;;13.09;60.43
15678;BME280;7939;50.814;6.368;2023-04-08T10:58:07;100734.31;;;13.12;60.07
15678;BME280;7939;50.814;6.368;2023-04-08T11:00:35;100732.59;;;13.12;59.15
15678;BME280;7939;50.814;6.368;2023-04-08T11:03:03;100740.34;;;13.14;59.92
15678;BME280;7939;50.814;6.368;2023-04-08T11:05:31;100733.50;;;13.14;60.00
15678;BME280;7939;50.814;6.368;2023-04-08T11:07:58;100741.19;;;13.17;59.46
15678;BME280;7939;50.814;6.368;2023-04-08T11:10:25;100740.41;;;13.21;58.97
15678;BME280;7939;50.814;6.368;2023-04-08T11:12:54;100733.56;;;13.22;58.62
15678;BME280;7939;50.814;6.368;2023-04-08T11:15:21;100739.56;;;13.27;59.25
15678;BME280;7939;50.814;6.368;2023-04-08T11:17:48;100737.00;;;13.30;59.00
15678;BME280;7939;50.814;6.368;2023-04-08T11:20:16;100740.44;;;13.29;58.57
15678;BME280;7939;50.814;6.368;2023-04-08T11:22:44;100741.28;;;13.28;59.18
15678;BME280;7939;50.814;6.368;2023-04-08T11:25:12;100734.44;;;13.30;58.47
15678;BME280;7939;50.814;6.368;2023-04-08T11:27:39;100742.16;;;13.33;58.35
15678;BME280;7939;50.814;6.368;2023-04-08T11:30:07;100741.31;;;13.33;58.81
15678;BME280;7939;50.814;6.368;2023-04-08T11:32:35;100738.75;;;13.34;59.30
15678;BME280;7939;50.814;6.368;2023-04-08T11:35:04;100737.88;;;13.34;59.24
15678;BME280;7939;50.814;6.368;2023-04-08T11:37:38;100731.03;;;13.37;58.21
15678;BME280;7939;50.814;6.368;2023-04-08T11:40:08;100736.22;;;13.40;59.31
15678;BME280;7939;50.814;6.368;2023-04-08T11:42:35;100737.03;;;13.38;58.64
15678;BME280;7939;50.814;6.368;2023-04-08T11:45:09;100734.50;;;13.39;58.60
15678;BME280;7939;50.814;6.368;2023-04-08T11:47:36;100731.06;;;13.39;58.93
15678;BME280;7939;50.814;6.368;2023-04-08T11:50:03;100729.34;;;13.44;58.82
15678;BME280;7939;50.814;6.368;2023-04-08T11:52:41;100736.19;;;13.43;57.91
15678;BME280;7939;50.814;6.368;2023-04-08T11:55:10;100735.34;;;13.43;56.02
15678;BME280;7939;50.814;6.368;2023-04-08T11:57:37;100737.91;;;13.43;55.87
15678;BME280;7939;50.814;6.368;2023-04-08T12:00:05;100736.22;;;13.46;56.99
15678;BME280;7939;50.814;6.368;2023-04-08T12:02:31;100730.25;;;13.46;56.13
15678;BME280;7939;50.814;6.368;2023-04-08T12:04:58;100737.91;;;13.43;55.89
15678;BME280;7939;50.814;6.368;2023-04-08T12:07:25;100731.94;;;13.45;56.63
15678;BME280;7939;50.814;6.368;2023-04-08T12:09:52;100732.81;;;13.47;54.68
15678;BME280;7939;50.814;6.368;2023-04-08T12:12:20;100737.09;;;13.45;55.31
15678;BME280;7939;50.814;6.368;2023-04-08T12:14:46;100743.06;;;13.49;55.67
15678;BME280;7939;50.814;6.368;2023-04-08T12:17:13;100740.50;;;13.50;55.16
15678;BME280;7939;50.814;6.368;2023-04-08T12:19:40;100737.97;;;13.52;56.07
15678;BME280;7939;50.814;6.368;2023-04-08T12:22:06;100737.13;;;13.59;56.11
15678;BME280;7939;50.814;6.368;2023-04-08T12:24:33;100734.56;;;13.59;55.22
15678;BME280;7939;50.814;6.368;2023-04-08T12:27:00;100738.81;;;13.57;55.36
15678;BME280;7939;50.814;6.368;2023-04-08T12:29:29;100734.56;;;13.58;55.66
15678;BME280;7939;50.814;6.368;2023-04-08T12:31:55;100725.13;;;13.63;55.73
15678;BME280;7939;50.814;6.368;2023-04-08T12:34:22;100732.00;;;13.65;54.45
15678;BME280;7939;50.814;6.368;2023-04-08T12:36:49;100736.28;;;13.66;55.32
15678;BME280;7939;50.814;6.368;2023-04-08T12:39:15;100737.97;;;13.61;54.86
15678;BME280;7939;50.814;6.368;2023-04-08T12:41:42;100732.00;;;13.65;54.84
15678;BME280;7939;50.814;6.368;2023-04-08T12:44:09;100734.56;;;13.67;55.59
15678;BME280;7939;50.814;6.368;2023-04-08T12:46:37;100733.72;;;13.66;55.13
15678;BME280;7939;50.814;6.368;2023-04-08T12:49:03;100730.28;;;13.60;55.57
15678;BME280;7939;50.814;6.368;2023-04-08T12:51:30;100729.41;;;13.59;55.02
15678;BME280;7939;50.814;6.368;2023-04-08T12:53:57;100732.84;;;13.60;55.04
15678;BME280;7939;50.814;6.368;2023-04-08T12:56:24;100736.28;;;13.60;54.64
15678;BME280;7939;50.814;6.368;2023-04-08T12:58:51;100738.81;;;13.57;55.17
15678;BME280;7939;50.814;6.368;2023-04-08T13:01:18;100735.44;;;13.64;54.35
15678;BME280;7939;50.814;6.368;2023-04-08T13:03:45;100729.44;;;13.68;54.45
15678;BME280;7939;50.814;6.368;2023-04-08T13:06:13;100729.44;;;13.65;54.35